sensor_id;sensor_type;location;lat;lon;timestamp;pressure;altitude;pressure_sealevel;temperature;humidity
68544;BME280;55534;52.222;5.156;2022-07-03T00:01:59;101741.34;;;16.07;100.00
68544;BME280;55534;52.222;5.156;2022-07-03T00:04:25;101839.13;;;16.73;100.00
68544;BME280;55534;52.222;5.156;2022-07-03T00:06:52;101823.78;;;16.60;100.00
68544;BME280;55534;52.222;5.156;2022-07-03T00:09:18;101768.03;;;16.17;100.00
68544;BME280;55534;52.222;5.156;2022-07-03T00:11:44;101791.97;;;16.33;100.00
68544;BME280;55534;52.222;5.156;2022-07-03T00:14:10;101835.50;;;16.56;100.00
68544;BME280;55534;52.222;5.156;2022-07-03T00:16:35;101859.91;;;16.71;100.00
68544;BME280;55534;52.222;5.156;2022-07-03T00:19:00;101769.22;;;16.08;100.00
68544;BME280;55534;52.222;5.156;2022-07-03T00:21:34;101806.69;;;16.34;100.00
68544;BME280;55534;52.222;5.156;2022-07-03T00:24:08;101843.41;;;16.59;100.00
68544;BME280;55534;52.222;5.156;2022-07-03T00:26:37;101854.72;;;16.56;100.00
68544;BME280;55534;52.222;5.156;2022-07-03T00:29:04;101839.78;;;16.42;100.00
68544;BME280;55534;52.222;5.156;2022-07-03T00:31:32;101861.56;;;16.50;100.00
68544;BME280;55534;52.222;5.156;2022-07-03T00:33:59;101757.75;;;15.81;100.00
68544;BME280;55534;52.222;5.156;2022-07-03T00:36:33;101858.97;;;16.46;100.00
68544;BME280;55534;52.222;5.156;2022-07-03T00:39:00;101742.34;;;15.68;100.00
68544;BME280;55534;52.222;5.156;2022-07-03T00:41:29;101693.31;;;15.33;100.00
68544;BME280;55534;52.222;5.156;2022-07-03T00:43:56;101847.38;;;16.37;100.00
68544;BME280;55534;52.222;5.156;2022-07-03T00:46:23;101763.81;;;15.74;100.00
68544;BME280;55534;52.222;5.156;2022-07-03T00:48:51;101829.47;;;16.10;100.00
68544;BME280;55534;52.222;5.156;2022-07-03T00:51:22;101831.72;;;16.12;100.00
68544;BME280;55534;52.222;5.156;2022-07-03T00:53:53;101825.03;;;16.03;100.00
68544;BME280;55534;52.222;5.156;2022-07-03T00:56:23;101816.78;;;15.98;100.00
68544;BME280;55534;52.222;5.156;2022-07-03T00:58:52;101839.25;;;16.13;100.00
68544;BME280;55534;52.222;5.156;2022-07-03T01:01:19;101839.66;;;16.12;100.00
68544;BME280;55534;52.222;5.156;2022-07-03T01:03:45;101843.03;;;16.08;100.00
68544;BME280;55534;52.222;5.156;2022-07-03T01:06:14;101804.84;;;15.79;100.00
68544;BME280;55534;52.222;5.156;2022-07-03T01:08:49;101782.31;;;15.67;100.00
68544;BME280;55534;52.222;5.156;2022-07-03T01:11:23;101844.59;;;16.02;100.00
68544;BME280;55534;52.222;5.156;2022-07-03T01:16:31;101814.66;;;15.78;100.00
68544;BME280;55534;52.222;5.156;2022-07-03T01:27:39;101842.06;;;15.92;100.00
68544;BME280;55534;52.222;5.156;2022-07-03T01:30:10;101816.16;;;15.68;100.00
68544;BME280;55534;52.222;5.156;2022-07-03T01:32:45;101771.88;;;15.45;100.00
68544;BME280;55534;52.222;5.156;2022-07-03T01:35:20;101783.13;;;15.53;100.00
68544;BME280;55534;52.222;5.156;2022-07-03T01:37:46;101828.16;;;15.84;100.00
68544;BME280;55534;52.222;5.156;2022-07-03T01:40:12;101738.13;;;15.22;100.00
68544;BME280;55534;52.222;5.156;2022-07-03T01:42:39;101823.69;;;15.74;100.00
68544;BME280;55534;52.222;5.156;2022-07-03T01:45:10;101747.56;;;15.16;100.00
68544;BME280;55534;52.222;5.156;2022-07-03T01:47:37;101822.22;;;15.65;100.00
68544;BME280;55534;52.222;5.156;2022-07-03T01:50:06;101797.50;;;15.38;100.00
68544;BME280;55534;52.222;5.156;2022-07-03T01:52:31;101799.78;;;15.36;100.00
68544;BME280;55534;52.222;5.156;2022-07-03T01:55:00;101840.28;;;15.63;100.00
68544;BME280;55534;52.222;5.156;2022-07-03T01:57:43;101791.50;;;15.34;100.00
68544;BME280;55534;52.222;5.156;2022-07-03T02:00:10;101652.00;;;14.35;100.00
68544;BME280;55534;52.222;5.156;2022-07-03T02:02:41;101760.78;;;15.05;100.00
68544;BME280;55534;52.222;5.156;2022-07-03T02:05:09;101825.31;;;15.49;100.00
68544;BME280;55534;52.222;5.156;2022-07-03T02:07:46;101784.44;;;15.16;100.00
68544;BME280;55534;52.222;5.156;2022-07-03T02:10:15;101785.59;;;15.15;100.00
68544;BME280;55534;52.222;5.156;2022-07-03T02:12:51;101803.22;;;15.25;100.00
68544;BME280;55534;52.222;5.156;2022-07-03T02:15:21;101726.69;;;14.73;100.00
68544;BME280;55534;52.222;5.156;2022-07-03T02:17:51;101730.44;;;14.76;100.00
68544;BME280;55534;52.222;5.156;2022-07-03T02:20:19;101671.50;;;14.37;100.00
68544;BME280;55534;52.222;5.156;2022-07-03T02:22:59;101778.06;;;15.06;100.00
68544;BME280;55534;52.222;5.156;2022-07-03T02:25:36;101823.44;;;15.43;100.00
68544;BME280;55534;52.222;5.156;2022-07-03T02:30:57;101782.53;;;15.20;100.00
68544;BME280;55534;52.222;5.156;2022-07-03T02:33:30;101738.22;;;15.04;100.00
68544;BME280;55534;52.222;5.156;2022-07-03T02:35:57;101827.13;;;15.63;100.00
68544;BME280;55534;52.222;5.156;2022-07-03T02:38:23;101749.09;;;15.10;100.00
68544;BME280;55534;52.222;5.156;2022-07-03T02:41:12;101771.91;;;15.42;100.00
68544;BME280;55534;52.222;5.156;2022-07-03T02:43:57;101808.22;;;15.79;100.00
68544;BME280;55534;52.222;5.156;2022-07-03T02:52:28;101808.16;;;15.90;100.00
68544;BME280;55534;52.222;5.156;2022-07-03T02:55:34;101767.25;;;15.64;100.00
68544;BME280;55534;52.222;5.156;2022-07-03T02:57:57;101708.06;;;15.20;100.00
68544;BME280;55534;52.222;5.156;2022-07-03T03:00:33;101781.53;;;15.74;100.00
68544;BME280;55534;52.222;5.156;2022-07-03T03:03:00;101625.63;;;14.60;100.00
68544;BME280;55534;52.222;5.156;2022-07-03T03:05:46;101804.38;;;15.91;100.00
68544;BME280;55534;52.222;5.156;2022-07-03T03:08:16;101656.69;;;14.90;100.00
68544;BME280;55534;52.222;5.156;2022-07-03T03:10:46;101804.75;;;15.90;100.00
68544;BME280;55534;52.222;5.156;2022-07-03T03:13:14;101801.75;;;15.87;100.00
68544;BME280;55534;52.222;5.156;2022-07-03T03:16:03;101802.91;;;15.86;100.00
68544;BME280;55534;52.222;5.156;2022-07-03T03:18:30;101784.50;;;15.72;100.00
68544;BME280;55534;52.222;5.156;2022-07-03T03:20:59;101806.69;;;15.82;100.00
68544;BME280;55534;52.222;5.156;2022-07-03T03:26:12;101729.44;;;15.29;100.00
68544;BME280;55534;52.222;5.156;2022-07-03T03:28:39;101752.38;;;15.32;100.00
68544;BME280;55534;52.222;5.156;2022-07-03T03:31:06;101677.81;;;14.72;100.00
68544;BME280;55534;52.222;5.156;2022-07-03T03:33:43;101739.63;;;15.23;100.00
68544;BME280;55534;52.222;5.156;2022-07-03T03:36:10;101805.59;;;15.72;100.00
68544;BME280;55534;52.222;5.156;2022-07-03T03:38:36;101738.88;;;15.26;100.00
68544;BME280;55534;52.222;5.156;2022-07-03T03:41:03;101424.38;;;13.09;100.00
68544;BME280;55534;52.222;5.156;2022-07-03T03:43:29;101750.47;;;15.40;100.00
68544;BME280;55534;52.222;5.156;2022-07-03T03:45:56;101805.22;;;15.81;100.00
68544;BME280;55534;52.222;5.156;2022-07-03T03:48:21;101771.47;;;15.51;100.00
68544;BME280;55534;52.222;5.156;2022-07-03T03:50:47;101725.31;;;15.24;100.00
68544;BME280;55534;52.222;5.156;2022-07-03T03:53:12;101730.53;;;15.39;100.00
68544;BME280;55534;52.222;5.156;2022-07-03T03:56:01;101800.63;;;15.92;100.00
68544;BME280;55534;52.222;5.156;2022-07-03T03:58:28;101792.00;;;15.84;100.00
68544;BME280;55534;52.222;5.156;2022-07-03T04:00:56;101549.84;;;14.19;100.00
68544;BME280;55534;52.222;5.156;2022-07-03T04:03:21;101632.69;;;14.74;100.00
68544;BME280;55534;52.222;5.156;2022-07-03T04:05:46;101704.94;;;15.36;100.00
68544;BME280;55534;52.222;5.156;2022-07-03T04:08:12;101705.31;;;15.38;100.00
68544;BME280;55534;52.222;5.156;2022-07-03T04:10:38;101716.19;;;15.43;100.00
68544;BME280;55534;52.222;5.156;2022-07-03T04:13:04;101718.78;;;15.47;100.00
68544;BME280;55534;52.222;5.156;2022-07-03T04:15:29;101813.63;;;16.14;100.00
68544;BME280;55534;52.222;5.156;2022-07-03T04:17:54;101774.25;;;15.92;100.00
68544;BME280;55534;52.222;5.156;2022-07-03T04:20:20;101732.59;;;15.69;100.00
68544;BME280;55534;52.222;5.156;2022-07-03T04:22:45;101768.59;;;15.94;100.00
68544;BME280;55534;52.222;5.156;2022-07-03T04:25:10;101625.72;;;15.08;100.00
68544;BME280;55534;52.222;5.156;2022-07-03T04:27:36;101783.81;;;16.20;100.00
68544;BME280;55534;52.222;5.156;2022-07-03T04:30:02;101720.91;;;15.74;100.00
68544;BME280;55534;52.222;5.156;2022-07-03T04:32:27;101809.00;;;16.29;100.00
68544;BME280;55534;52.222;5.156;2022-07-03T04:34:52;101805.22;;;16.26;100.00
68544;BME280;55534;52.222;5.156;2022-07-03T04:37:18;101656.13;;;15.20;100.00
68544;BME280;55534;52.222;5.156;2022-07-03T04:39:43;101780.25;;;15.96;100.00
68544;BME280;55534;52.222;5.156;2022-07-03T04:42:09;101730.00;;;15.62;100.00
68544;BME280;55534;52.222;5.156;2022-07-03T04:44:34;101669.00;;;15.07;100.00
68544;BME280;55534;52.222;5.156;2022-07-03T04:46:59;101824.44;;;16.30;100.00
68544;BME280;55534;52.222;5.156;2022-07-03T04:49:25;101665.06;;;15.34;100.00
68544;BME280;55534;52.222;5.156;2022-07-03T04:51:50;101797.69;;;16.28;100.00
68544;BME280;55534;52.222;5.156;2022-07-03T04:54:17;101476.66;;;14.10;100.00
68544;BME280;55534;52.222;5.156;2022-07-03T04:56:43;101742.22;;;15.94;100.00
68544;BME280;55534;52.222;5.156;2022-07-03T04:59:08;101606.59;;;15.01;100.00
68544;BME280;55534;52.222;5.156;2022-07-03T05:01:33;101644.78;;;15.31;100.00
68544;BME280;55534;52.222;5.156;2022-07-03T05:03:59;101609.53;;;15.14;100.00
68544;BME280;55534;52.222;5.156;2022-07-03T05:06:24;101733.47;;;16.04;100.00
68544;BME280;55534;52.222;5.156;2022-07-03T05:08:50;101819.25;;;16.61;100.00
68544;BME280;55534;52.222;5.156;2022-07-03T05:11:15;101836.81;;;16.78;100.00
68544;BME280;55534;52.222;5.156;2022-07-03T05:13:41;101714.69;;;15.98;100.00
68544;BME280;55534;52.222;5.156;2022-07-03T05:16:06;101756.59;;;16.31;100.00
68544;BME280;55534;52.222;5.156;2022-07-03T05:18:33;101491.47;;;14.52;100.00
68544;BME280;55534;52.222;5.156;2022-07-03T05:20:58;101741.84;;;16.33;100.00
68544;BME280;55534;52.222;5.156;2022-07-03T05:23:23;101783.81;;;16.58;100.00
68544;BME280;55534;52.222;5.156;2022-07-03T05:25:49;101733.66;;;16.24;100.00
68544;BME280;55534;52.222;5.156;2022-07-03T05:28:14;101796.53;;;16.71;100.00
68544;BME280;55534;52.222;5.156;2022-07-03T05:30:40;101727.94;;;16.33;100.00
68544;BME280;55534;52.222;5.156;2022-07-03T05:33:05;101685.53;;;16.13;100.00
68544;BME280;55534;52.222;5.156;2022-07-03T05:35:31;101824.25;;;16.93;100.00
68544;BME280;55534;52.222;5.156;2022-07-03T05:37:56;101745.09;;;16.48;100.00
68544;BME280;55534;52.222;5.156;2022-07-03T05:40:21;101780.97;;;16.80;100.00
68544;BME280;55534;52.222;5.156;2022-07-03T05:42:47;101799.16;;;17.09;100.00
68544;BME280;55534;52.222;5.156;2022-07-03T05:45:12;101673.47;;;16.15;100.00
68544;BME280;55534;52.222;5.156;2022-07-03T05:47:37;101838.91;;;17.29;100.00
68544;BME280;55534;52.222;5.156;2022-07-03T05:50:03;101844.09;;;17.39;100.00
68544;BME280;55534;52.222;5.156;2022-07-03T05:52:29;101842.50;;;17.46;100.00
68544;BME280;55534;52.222;5.156;2022-07-03T05:54:54;101778.84;;;17.02;100.00
68544;BME280;55534;52.222;5.156;2022-07-03T05:57:20;101820.47;;;17.25;100.00
68544;BME280;55534;52.222;5.156;2022-07-03T05:59:46;101851.44;;;17.55;100.00
68544;BME280;55534;52.222;5.156;2022-07-03T06:02:12;101760.13;;;16.89;100.00
68544;BME280;55534;52.222;5.156;2022-07-03T06:04:37;101807.28;;;17.21;100.00
68544;BME280;55534;52.222;5.156;2022-07-03T06:07:03;101701.28;;;16.58;100.00
68544;BME280;55534;52.222;5.156;2022-07-03T06:09:28;101696.06;;;16.51;100.00
68544;BME280;55534;52.222;5.156;2022-07-03T06:11:53;101805.66;;;17.31;100.00
68544;BME280;55534;52.222;5.156;2022-07-03T06:14:19;101808.97;;;17.39;100.00
68544;BME280;55534;52.222;5.156;2022-07-03T06:16:44;101748.13;;;17.15;100.00
68544;BME280;55534;52.222;5.156;2022-07-03T06:19:10;101718.63;;;16.93;100.00
68544;BME280;55534;52.222;5.156;2022-07-03T06:21:35;101796.41;;;17.47;100.00
68544;BME280;55534;52.222;5.156;2022-07-03T06:24:00;101792.72;;;17.40;100.00
68544;BME280;55534;52.222;5.156;2022-07-03T06:26:26;101819.63;;;17.62;100.00
68544;BME280;55534;52.222;5.156;2022-07-03T06:28:54;101864.28;;;17.84;100.00
68544;BME280;55534;52.222;5.156;2022-07-03T06:31:20;101841.06;;;17.68;100.00
68544;BME280;55534;52.222;5.156;2022-07-03T06:33:45;101792.75;;;17.37;100.00
68544;BME280;55534;52.222;5.156;2022-07-03T06:36:10;101698.53;;;16.69;100.00
68544;BME280;55534;52.222;5.156;2022-07-03T06:38:36;101833.56;;;17.63;100.00
68544;BME280;55534;52.222;5.156;2022-07-03T06:41:01;101841.06;;;17.68;100.00
68544;BME280;55534;52.222;5.156;2022-07-03T06:43:26;101725.78;;;16.93;100.00
68544;BME280;55534;52.222;5.156;2022-07-03T06:45:52;101837.94;;;17.73;100.00
68544;BME280;55534;52.222;5.156;2022-07-03T06:48:17;101825.94;;;17.69;100.00
68544;BME280;55534;52.222;5.156;2022-07-03T06:50:42;101788.03;;;17.52;100.00
68544;BME280;55534;52.222;5.156;2022-07-03T06:53:08;101824.03;;;17.69;100.00
68544;BME280;55534;52.222;5.156;2022-07-03T06:55:33;101621.63;;;16.36;100.00
68544;BME280;55534;52.222;5.156;2022-07-03T06:57:59;101764.59;;;17.27;100.00
68544;BME280;55534;52.222;5.156;2022-07-03T07:00:24;101493.25;;;15.57;100.00
68544;BME280;55534;52.222;5.156;2022-07-03T07:02:50;101852.47;;;18.16;100.00
68544;BME280;55534;52.222;5.156;2022-07-03T07:05:15;101790.34;;;17.73;100.00
68544;BME280;55534;52.222;5.156;2022-07-03T07:07:41;101791.03;;;17.77;100.00
68544;BME280;55534;52.222;5.156;2022-07-03T07:10:06;101848.44;;;18.31;100.00
68544;BME280;55534;52.222;5.156;2022-07-03T07:12:32;101816.19;;;18.16;100.00
68544;BME280;55534;52.222;5.156;2022-07-03T07:14:57;101665.09;;;17.16;100.00
68544;BME280;55534;52.222;5.156;2022-07-03T07:17:23;101802.31;;;18.09;100.00
68544;BME280;55534;52.222;5.156;2022-07-03T07:19:48;101794.63;;;18.18;100.00
68544;BME280;55534;52.222;5.156;2022-07-03T07:22:13;101810.59;;;18.34;100.00
68544;BME280;55534;52.222;5.156;2022-07-03T07:24:39;101771.31;;;18.09;100.00
68544;BME280;55534;52.222;5.156;2022-07-03T07:27:04;101849.19;;;18.75;100.00
68544;BME280;55534;52.222;5.156;2022-07-03T07:29:30;101597.31;;;17.06;100.00
68544;BME280;55534;52.222;5.156;2022-07-03T07:31:55;101527.09;;;16.58;100.00
68544;BME280;55534;52.222;5.156;2022-07-03T07:34:20;101554.66;;;16.84;100.00
68544;BME280;55534;52.222;5.156;2022-07-03T07:36:46;101726.84;;;18.00;100.00
68544;BME280;55534;52.222;5.156;2022-07-03T07:39:11;101704.78;;;17.87;100.00
68544;BME280;55534;52.222;5.156;2022-07-03T07:41:38;101851.16;;;18.95;100.00
68544;BME280;55534;52.222;5.156;2022-07-03T07:44:03;101772.25;;;18.42;100.00
68544;BME280;55534;52.222;5.156;2022-07-03T07:46:29;101801.72;;;18.65;100.00
68544;BME280;55534;52.222;5.156;2022-07-03T07:48:55;101809.88;;;18.74;100.00
68544;BME280;55534;52.222;5.156;2022-07-03T07:51:20;101606.97;;;17.40;100.00
68544;BME280;55534;52.222;5.156;2022-07-03T07:53:46;101846.72;;;19.08;100.00
68544;BME280;55534;52.222;5.156;2022-07-03T07:56:11;101765.19;;;18.56;100.00
68544;BME280;55534;52.222;5.156;2022-07-03T07:58:36;101862.25;;;19.26;100.00
68544;BME280;55534;52.222;5.156;2022-07-03T08:01:02;101824.47;;;19.22;100.00
68544;BME280;55534;52.222;5.156;2022-07-03T08:03:46;101829.22;;;19.31;100.00
68544;BME280;55534;52.222;5.156;2022-07-03T08:06:30;101796.13;;;19.19;100.00
68544;BME280;55534;52.222;5.156;2022-07-03T08:08:55;101818.72;;;19.44;100.00
68544;BME280;55534;52.222;5.156;2022-07-03T08:11:20;101725.47;;;18.96;100.00
68544;BME280;55534;52.222;5.156;2022-07-03T08:13:46;101857.34;;;19.97;100.00
68544;BME280;55534;52.222;5.156;2022-07-03T08:16:12;101866.44;;;20.13;100.00
68544;BME280;55534;52.222;5.156;2022-07-03T08:18:38;101865.78;;;20.25;100.00
68544;BME280;55534;52.222;5.156;2022-07-03T08:21:03;101868.72;;;20.44;100.00
68544;BME280;55534;52.222;5.156;2022-07-03T08:23:29;101857.53;;;20.52;100.00
68544;BME280;55534;52.222;5.156;2022-07-03T08:25:54;101826.06;;;20.51;100.00
68544;BME280;55534;52.222;5.156;2022-07-03T08:28:20;101850.59;;;20.71;100.00
68544;BME280;55534;52.222;5.156;2022-07-03T08:30:47;101846.03;;;20.55;100.00
68544;BME280;55534;52.222;5.156;2022-07-03T08:33:12;101766.56;;;19.73;100.00
68544;BME280;55534;52.222;5.156;2022-07-03T08:35:38;101826.59;;;20.00;100.00
68544;BME280;55534;52.222;5.156;2022-07-03T08:38:03;101762.41;;;19.56;100.00
68544;BME280;55534;52.222;5.156;2022-07-03T08:40:29;101822.22;;;20.23;100.00
68544;BME280;55534;52.222;5.156;2022-07-03T08:42:57;101876.22;;;20.65;100.00
68544;BME280;55534;52.222;5.156;2022-07-03T08:45:23;101816.94;;;20.52;100.00
68544;BME280;55534;52.222;5.156;2022-07-03T08:47:52;101872.75;;;21.87;100.00
68544;BME280;55534;52.222;5.156;2022-07-03T08:50:19;101875.66;;;22.85;92.26
68544;BME280;55534;52.222;5.156;2022-07-03T08:52:48;101834.94;;;22.84;86.92
68544;BME280;55534;52.222;5.156;2022-07-03T08:55:15;101874.97;;;22.94;85.58
68544;BME280;55534;52.222;5.156;2022-07-03T08:57:43;101792.00;;;22.38;84.76
68544;BME280;55534;52.222;5.156;2022-07-03T09:00:12;101851.34;;;22.83;88.33
68544;BME280;55534;52.222;5.156;2022-07-03T09:02:39;101816.59;;;22.42;85.32
68544;BME280;55534;52.222;5.156;2022-07-03T09:05:09;101799.44;;;22.08;88.53
68544;BME280;55534;52.222;5.156;2022-07-03T09:07:36;101857.28;;;22.08;92.65
68544;BME280;55534;52.222;5.156;2022-07-03T09:10:03;101847.97;;;21.65;97.64
68544;BME280;55534;52.222;5.156;2022-07-03T09:12:32;101827.81;;;21.00;100.00
68544;BME280;55534;52.222;5.156;2022-07-03T09:14:59;101873.94;;;20.93;100.00
68544;BME280;55534;52.222;5.156;2022-07-03T09:17:24;101889.47;;;20.65;100.00
68544;BME280;55534;52.222;5.156;2022-07-03T09:19:49;101875.13;;;20.46;100.00
68544;BME280;55534;52.222;5.156;2022-07-03T09:22:29;101847.94;;;20.26;100.00
68544;BME280;55534;52.222;5.156;2022-07-03T09:25:12;101878.19;;;20.61;100.00
68544;BME280;55534;52.222;5.156;2022-07-03T09:27:51;101863.75;;;20.62;100.00
68544;BME280;55534;52.222;5.156;2022-07-03T09:30:19;101841.00;;;20.61;100.00
68544;BME280;55534;52.222;5.156;2022-07-03T09:32:46;101874.78;;;20.90;100.00
68544;BME280;55534;52.222;5.156;2022-07-03T09:35:20;101838.94;;;20.82;100.00
68544;BME280;55534;52.222;5.156;2022-07-03T09:37:52;101824.19;;;20.81;100.00
68544;BME280;55534;52.222;5.156;2022-07-03T09:40:18;101847.28;;;20.97;100.00
68544;BME280;55534;52.222;5.156;2022-07-03T09:43:13;101878.38;;;21.38;100.00
68544;BME280;55534;52.222;5.156;2022-07-03T09:46:01;101873.09;;;21.64;100.00
68544;BME280;55534;52.222;5.156;2022-07-03T09:48:39;101832.22;;;21.70;100.00
68544;BME280;55534;52.222;5.156;2022-07-03T09:51:12;101871.81;;;23.08;93.51
68544;BME280;55534;52.222;5.156;2022-07-03T09:53:45;101871.78;;;23.39;86.82
68544;BME280;55534;52.222;5.156;2022-07-03T09:56:11;101827.78;;;22.81;86.97
68544;BME280;55534;52.222;5.156;2022-07-03T09:58:38;101798.28;;;22.09;89.35
68544;BME280;55534;52.222;5.156;2022-07-03T10:01:18;101882.50;;;22.03;93.23
68544;BME280;55534;52.222;5.156;2022-07-03T10:03:44;101860.22;;;21.75;96.60
68544;BME280;55534;52.222;5.156;2022-07-03T10:06:09;101838.31;;;21.58;98.16
68544;BME280;55534;52.222;5.156;2022-07-03T10:08:35;101870.75;;;21.79;97.63
68544;BME280;55534;52.222;5.156;2022-07-03T10:11:01;101877.44;;;21.83;96.03
68544;BME280;55534;52.222;5.156;2022-07-03T10:13:27;101881.72;;;21.81;97.13
68544;BME280;55534;52.222;5.156;2022-07-03T10:15:53;101813.72;;;21.15;96.51
68544;BME280;55534;52.222;5.156;2022-07-03T10:18:20;101827.84;;;21.25;97.57
68544;BME280;55534;52.222;5.156;2022-07-03T10:20:49;101876.59;;;21.73;98.43
68544;BME280;55534;52.222;5.156;2022-07-03T10:23:16;101834.66;;;21.39;93.98
68544;BME280;55534;52.222;5.156;2022-07-03T10:25:42;101757.09;;;20.64;95.43
68544;BME280;55534;52.222;5.156;2022-07-03T10:28:11;101852.72;;;21.06;96.18
68544;BME280;55534;52.222;5.156;2022-07-03T10:30:38;101875.25;;;21.14;97.65
68544;BME280;55534;52.222;5.156;2022-07-03T10:33:03;101840.63;;;20.75;98.99
68544;BME280;55534;52.222;5.156;2022-07-03T10:35:33;101889.97;;;20.89;100.00
68544;BME280;55534;52.222;5.156;2022-07-03T10:43:29;101938.81;;;18.80;100.00
68544;BME280;55534;52.222;5.156;2022-07-03T10:46:15;101946.41;;;18.00;100.00
68544;BME280;55534;52.222;5.156;2022-07-03T10:48:52;101974.97;;;17.82;100.00
68544;BME280;55534;52.222;5.156;2022-07-03T10:51:17;101893.53;;;17.04;100.00
68544;BME280;55534;52.222;5.156;2022-07-03T10:53:43;101928.94;;;17.11;100.00
68544;BME280;55534;52.222;5.156;2022-07-03T10:56:08;101911.84;;;16.84;100.00
68544;BME280;55534;52.222;5.156;2022-07-03T10:58:54;102012.59;;;17.24;100.00
68544;BME280;55534;52.222;5.156;2022-07-03T11:01:30;102013.44;;;17.14;100.00
68544;BME280;55534;52.222;5.156;2022-07-03T11:04:00;101972.94;;;16.79;100.00
68544;BME280;55534;52.222;5.156;2022-07-03T11:09:11;102017.72;;;17.01;100.00
68544;BME280;55534;52.222;5.156;2022-07-03T11:11:43;102025.22;;;17.02;100.00
68544;BME280;55534;52.222;5.156;2022-07-03T11:14:22;101936.56;;;16.53;100.00
68544;BME280;55534;52.222;5.156;2022-07-03T11:16:48;101899.25;;;16.54;100.00
68544;BME280;55534;52.222;5.156;2022-07-03T11:19:14;101984.59;;;17.31;100.00
68544;BME280;55534;52.222;5.156;2022-07-03T11:21:48;102012.84;;;17.72;100.00
68544;BME280;55534;52.222;5.156;2022-07-03T11:24:30;102018.25;;;17.99;100.00
68544;BME280;55534;52.222;5.156;2022-07-03T11:27:16;101959.63;;;18.00;100.00
68544;BME280;55534;52.222;5.156;2022-07-03T11:29:57;101972.97;;;18.48;100.00
68544;BME280;55534;52.222;5.156;2022-07-03T11:32:49;102017.28;;;18.94;100.00
68544;BME280;55534;52.222;5.156;2022-07-03T11:35:47;102005.59;;;18.92;100.00
68544;BME280;55534;52.222;5.156;2022-07-03T11:38:27;101954.47;;;18.95;100.00
68544;BME280;55534;52.222;5.156;2022-07-03T11:40:56;101980.47;;;19.24;100.00
68544;BME280;55534;52.222;5.156;2022-07-03T11:43:22;101956.09;;;19.29;100.00
68544;BME280;55534;52.222;5.156;2022-07-03T11:45:48;101857.34;;;18.65;100.00
68544;BME280;55534;52.222;5.156;2022-07-03T11:48:16;101963.78;;;19.63;100.00
68544;BME280;55534;52.222;5.156;2022-07-03T11:50:47;101851.69;;;18.86;100.00
68544;BME280;55534;52.222;5.156;2022-07-03T11:53:20;101895.38;;;19.18;100.00
68544;BME280;55534;52.222;5.156;2022-07-03T11:55:57;101944.97;;;19.37;100.00
68544;BME280;55534;52.222;5.156;2022-07-03T11:58:24;101877.91;;;18.77;100.00
68544;BME280;55534;52.222;5.156;2022-07-03T12:00:50;101930.88;;;18.77;100.00
68544;BME280;55534;52.222;5.156;2022-07-03T12:03:22;101917.81;;;18.42;100.00
68544;BME280;55534;52.222;5.156;2022-07-03T12:05:53;101893.34;;;18.11;100.00
68544;BME280;55534;52.222;5.156;2022-07-03T12:08:23;101922.41;;;18.15;100.00
68544;BME280;55534;52.222;5.156;2022-07-03T12:10:49;101866.44;;;17.62;100.00
68544;BME280;55534;52.222;5.156;2022-07-03T12:13:21;101969.94;;;18.22;100.00
68544;BME280;55534;52.222;5.156;2022-07-03T12:15:47;101975.47;;;18.04;100.00
68544;BME280;55534;52.222;5.156;2022-07-03T12:18:14;101920.91;;;17.56;100.00
68544;BME280;55534;52.222;5.156;2022-07-03T12:20:42;101987.38;;;17.89;100.00
68544;BME280;55534;52.222;5.156;2022-07-03T12:23:08;101933.16;;;17.39;100.00
68544;BME280;55534;52.222;5.156;2022-07-03T12:25:40;101932.09;;;17.33;100.00
68544;BME280;55534;52.222;5.156;2022-07-03T12:28:08;101924.59;;;17.28;100.00
68544;BME280;55534;52.222;5.156;2022-07-03T12:30:35;102001.13;;;17.76;100.00
68544;BME280;55534;52.222;5.156;2022-07-03T12:33:02;101979.38;;;17.61;100.00
68544;BME280;55534;52.222;5.156;2022-07-03T12:35:28;101991.63;;;17.79;100.00
68544;BME280;55534;52.222;5.156;2022-07-03T12:37:54;101900.91;;;17.20;100.00
68544;BME280;55534;52.222;5.156;2022-07-03T12:40:19;101967.78;;;17.86;100.00
68544;BME280;55534;52.222;5.156;2022-07-03T12:42:55;101983.19;;;18.22;100.00
68544;BME280;55534;52.222;5.156;2022-07-03T12:45:30;101977.56;;;18.44;100.00
68544;BME280;55534;52.222;5.156;2022-07-03T12:47:57;101938.34;;;18.62;100.00
68544;BME280;55534;52.222;5.156;2022-07-03T12:50:23;101960.38;;;19.63;100.00
68544;BME280;55534;52.222;5.156;2022-07-03T12:52:53;101976.44;;;20.12;100.00
68544;BME280;55534;52.222;5.156;2022-07-03T12:55:27;101973.97;;;20.37;100.00
68544;BME280;55534;52.222;5.156;2022-07-03T12:58:15;101952.38;;;20.85;100.00
68544;BME280;55534;52.222;5.156;2022-07-03T13:01:00;101940.72;;;21.37;100.00
68544;BME280;55534;52.222;5.156;2022-07-03T13:03:30;101937.47;;;21.59;100.00
68544;BME280;55534;52.222;5.156;2022-07-03T13:05:56;101923.06;;;21.43;100.00
68544;BME280;55534;52.222;5.156;2022-07-03T13:08:22;101937.91;;;21.44;100.00
68544;BME280;55534;52.222;5.156;2022-07-03T13:10:57;101893.22;;;21.10;100.00
68544;BME280;55534;52.222;5.156;2022-07-03T13:13:23;101922.28;;;21.30;100.00
68544;BME280;55534;52.222;5.156;2022-07-03T13:15:48;101941.69;;;21.01;100.00
68544;BME280;55534;52.222;5.156;2022-07-03T13:18:14;101921.56;;;20.71;100.00
68544;BME280;55534;52.222;5.156;2022-07-03T13:20:39;101908.81;;;20.95;100.00